createdAt,value
2018-08-17T00:01:50.743Z,101519.23
2018-08-17T00:04:19.274Z,101513.12
2018-08-17T00:06:47.134Z,101518.52
2018-08-17T00:09:14.741Z,101521.17
2018-08-17T00:11:42.825Z,101514.20
2018-08-17T00:14:10.450Z,101505.58
2018-08-17T00:16:38.821Z,101512.53
2018-08-17T00:19:06.835Z,101513.91
2018-08-17T00:21:34.453Z,101513.06
2018-08-17T00:24:02.396Z,101510.92
2018-08-17T00:26:30.049Z,101512.73
2018-08-17T00:28:58.061Z,101518.92
2018-08-17T00:31:26.034Z,101517.20
2018-08-17T00:33:54.389Z,101517.20
2018-08-17T00:36:22.024Z,101520.33
2018-08-17T00:38:50.078Z,101517.73
2018-08-17T00:41:18.109Z,101521.22
2018-08-17T00:43:46.171Z,101520.83
2018-08-17T00:46:14.056Z,101523.08
2018-08-17T00:48:41.722Z,101523.47
2018-08-17T00:51:09.914Z,101525.33
2018-08-17T00:53:38.877Z,101521.36
2018-08-17T00:56:06.640Z,101524.06
2018-08-17T00:58:34.653Z,101523.62
2018-08-17T01:01:02.274Z,101523.25
2018-08-17T01:03:30.313Z,101527.70
2018-08-17T01:05:58.229Z,101527.75
2018-08-17T01:08:26.287Z,101522.98
2018-08-17T01:10:54.338Z,101526.53
2018-08-17T01:13:22.355Z,101525.78
2018-08-17T01:15:49.986Z,101529.36
2018-08-17T01:18:17.654Z,101530.29
2018-08-17T01:20:45.611Z,101532.06
2018-08-17T01:23:13.257Z,101536.53
2018-08-17T01:25:41.132Z,101535.69
2018-08-17T01:28:09.805Z,101537.05
2018-08-17T01:30:37.478Z,101534.86
2018-08-17T01:33:05.306Z,101533.66
2018-08-17T01:35:32.992Z,101538.13
2018-08-17T01:38:01.409Z,101544.40
2018-08-17T01:40:29.086Z,101547.97
2018-08-17T01:42:56.667Z,101543.17
2018-08-17T01:45:24.543Z,101537.48
2018-08-17T01:47:52.768Z,101545.42
2018-08-17T01:50:20.414Z,101542.78
2018-08-17T01:52:48.022Z,101549.00
2018-08-17T01:55:15.959Z,101545.55
2018-08-17T01:57:43.566Z,101543.41
2018-08-17T02:00:11.744Z,101549.67
2018-08-17T02:02:41.179Z,101548.34
2018-08-17T02:05:09.544Z,101540.85
2018-08-17T02:07:37.203Z,101543.10
2018-08-17T02:10:07.625Z,101539.58
2018-08-17T02:12:35.394Z,101537.02
2018-08-17T02:15:03.432Z,101537.46
2018-08-17T02:17:31.139Z,101537.11
2018-08-17T02:19:58.754Z,101530.10
2018-08-17T02:22:26.401Z,101525.30
2018-08-17T02:24:54.113Z,101523.19
2018-08-17T02:27:22.406Z,101512.60
2018-08-17T02:29:50.556Z,101521.03
2018-08-17T02:32:18.159Z,101516.27
2018-08-17T02:34:46.139Z,101523.38
2018-08-17T02:37:14.316Z,101523.38
2018-08-17T02:39:42.498Z,101526.50
2018-08-17T02:42:10.117Z,101522.19
2018-08-17T02:44:38.092Z,101521.35
2018-08-17T02:47:05.754Z,101519.19
2018-08-17T02:49:33.393Z,101518.36
2018-08-17T02:52:01.624Z,101515.31
2018-08-17T02:54:29.325Z,101510.95
2018-08-17T02:56:57.309Z,101512.27
2018-08-17T02:59:24.953Z,101512.31
2018-08-17T03:01:52.637Z,101522.02
2018-08-17T03:04:20.338Z,101518.58
2018-08-17T03:06:47.968Z,101525.63
2018-08-17T03:09:15.700Z,101529.17
2018-08-17T03:11:43.334Z,101523.88
2018-08-17T03:14:10.963Z,101526.08
2018-08-17T03:16:38.579Z,101531.81
2018-08-17T03:19:06.274Z,101538.08
2018-08-17T03:21:34.177Z,101539.84
2018-08-17T03:24:02.112Z,101544.73
2018-08-17T03:26:29.815Z,101540.86
2018-08-17T03:28:57.736Z,101542.66
2018-08-17T03:31:25.353Z,101534.77
2018-08-17T03:33:53.165Z,101535.27
2018-08-17T03:36:20.793Z,101540.55
2018-08-17T03:38:48.688Z,101535.73
2018-08-17T03:41:16.474Z,101544.12
2018-08-17T03:43:44.175Z,101548.09
2018-08-17T03:46:11.851Z,101556.41
2018-08-17T03:48:39.509Z,101553.84
2018-08-17T03:51:07.435Z,101556.54
2018-08-17T03:53:35.105Z,101562.72
2018-08-17T03:56:02.986Z,101575.94
2018-08-17T03:58:30.929Z,101578.58
2018-08-17T04:00:59.184Z,101575.14
2018-08-17T04:03:26.853Z,101572.09
2018-08-17T04:05:54.775Z,101572.54
2018-08-17T04:08:22.686Z,101573.91
2018-08-17T04:10:50.623Z,101583.16
2018-08-17T04:13:18.540Z,101578.80
2018-08-17T04:15:46.183Z,101588.49
2018-08-17T04:18:13.941Z,101597.34
2018-08-17T04:20:41.870Z,101604.00
2018-08-17T04:23:09.804Z,101600.95
2018-08-17T04:25:37.681Z,101601.35
2018-08-17T04:28:05.717Z,101609.77
2018-08-17T04:30:33.372Z,101611.92
2018-08-17T04:33:01.606Z,101621.61
2018-08-17T04:35:29.989Z,101623.82
2018-08-17T04:37:57.938Z,101615.49
2018-08-17T04:40:25.592Z,101623.42
2018-08-17T04:42:54.208Z,101625.63
2018-08-17T04:45:22.519Z,101634.00
2018-08-17T04:47:50.727Z,101629.16
2018-08-17T04:50:18.999Z,101627.39
2018-08-17T04:52:46.929Z,101635.72
2018-08-17T04:55:14.579Z,101634.52
2018-08-17T04:57:42.197Z,101636.64
2018-08-17T05:00:10.440Z,101630.55
2018-08-17T05:02:38.999Z,101626.59
2018-08-17T05:05:07.573Z,101626.11
2018-08-17T05:07:35.611Z,101619.02
2018-08-17T05:10:03.444Z,101616.73
2018-08-17T05:12:31.382Z,101621.97
2018-08-17T05:14:58.999Z,101618.41
2018-08-17T05:17:26.679Z,101623.70
2018-08-17T05:19:54.337Z,101621.97
2018-08-17T05:22:21.945Z,101619.25
2018-08-17T05:24:49.926Z,101620.58
2018-08-17T05:27:18.105Z,101620.05
2018-08-17T05:29:45.733Z,101618.72
2018-08-17T05:32:13.414Z,101624.41
2018-08-17T05:34:41.065Z,101633.10
2018-08-17T05:37:08.847Z,101626.00
2018-08-17T05:39:36.469Z,101622.88
2018-08-17T05:42:04.168Z,101620.72
2018-08-17T05:44:32.626Z,101618.07
2018-08-17T05:47:00.600Z,101615.83
2018-08-17T05:49:28.252Z,101610.89
2018-08-17T05:51:55.964Z,101609.92
2018-08-17T05:54:24.045Z,101615.11
2018-08-17T05:56:51.930Z,101607.94
2018-08-17T05:59:19.808Z,101612.73
2018-08-17T06:01:47.491Z,101614.86
2018-08-17T06:04:15.509Z,101606.00
2018-08-17T06:06:43.476Z,101604.67
2018-08-17T06:09:11.156Z,101596.73
2018-08-17T06:11:38.923Z,101605.51
2018-08-17T06:14:07.066Z,101605.95
2018-08-17T06:16:34.736Z,101609.97
2018-08-17T06:19:02.666Z,101614.86
2018-08-17T06:21:30.285Z,101625.88
2018-08-17T06:23:57.946Z,101618.02
2018-08-17T06:26:26.399Z,101620.67
2018-08-17T06:28:54.383Z,101627.69
2018-08-17T06:31:22.065Z,101620.67
2018-08-17T06:33:49.740Z,101623.19
2018-08-17T06:36:17.408Z,101631.13
2018-08-17T06:38:45.072Z,101631.48
2018-08-17T06:41:12.804Z,101626.15
2018-08-17T06:43:40.732Z,101640.61
2018-08-17T06:46:08.380Z,101635.31
2018-08-17T06:48:36.022Z,101632.58
2018-08-17T06:51:04.061Z,101629.98
2018-08-17T06:53:32.325Z,101636.11
2018-08-17T06:56:00.008Z,101640.96
2018-08-17T06:58:28.500Z,101634.30
2018-08-17T07:00:56.340Z,101643.91
2018-08-17T07:03:24.021Z,101652.70
2018-08-17T07:05:51.699Z,101662.48
2018-08-17T07:08:19.452Z,101663.50
2018-08-17T07:10:47.433Z,101681.70
2018-08-17T07:13:15.449Z,101675.13
2018-08-17T07:15:44.028Z,101669.04
2018-08-17T07:18:11.738Z,101663.80
2018-08-17T07:20:39.372Z,101668.56
2018-08-17T07:23:07.881Z,101680.86
2018-08-17T07:25:35.843Z,101695.33
2018-08-17T07:28:03.496Z,101698.81
2018-08-17T07:30:31.181Z,101697.89
2018-08-17T07:32:59.424Z,101684.66
2018-08-17T07:35:27.690Z,101685.58
2018-08-17T07:37:55.444Z,101684.75
2018-08-17T07:40:23.040Z,101681.26
2018-08-17T07:42:51.044Z,101686.07
2018-08-17T07:45:19.101Z,101687.91
2018-08-17T07:47:46.845Z,101691.00
2018-08-17T07:50:17.435Z,101697.66
2018-08-17T07:52:46.073Z,101698.63
2018-08-17T07:55:14.126Z,101702.19
2018-08-17T07:57:41.786Z,101700.91
2018-08-17T08:00:09.945Z,101709.28
2018-08-17T08:02:37.873Z,101706.16
2018-08-17T08:05:06.549Z,101712.33
2018-08-17T08:07:34.220Z,101696.94
2018-08-17T08:10:01.951Z,101717.22
2018-08-17T08:12:29.554Z,101735.73
2018-08-17T08:14:57.594Z,101719.03
2018-08-17T08:17:25.300Z,101708.48
2018-08-17T08:20:04.343Z,101729.65
2018-08-17T08:22:32.005Z,101745.56
2018-08-17T08:24:59.959Z,101738.95
2018-08-17T08:27:27.835Z,101731.94
2018-08-17T08:29:55.791Z,101726.20
2018-08-17T08:32:23.581Z,101723.08
2018-08-17T08:34:51.277Z,101720.92
2018-08-17T08:37:18.951Z,101724.89
2018-08-17T08:39:46.661Z,101736.62
2018-08-17T08:42:14.884Z,101724.23
2018-08-17T08:44:42.898Z,101723.35
2018-08-17T08:47:10.906Z,101731.29
2018-08-17T08:49:38.912Z,101730.01
2018-08-17T08:52:06.869Z,101745.39
2018-08-17T08:54:34.528Z,101749.36
2018-08-17T08:57:02.526Z,101750.28
2018-08-17T08:59:30.185Z,101758.22
2018-08-17T09:01:57.894Z,101764.83
2018-08-17T09:04:25.629Z,101781.59
2018-08-17T09:06:53.305Z,101779.86
2018-08-17T09:09:21.288Z,101772.45
2018-08-17T09:11:49.184Z,101774.62
2018-08-17T09:14:17.181Z,101771.56
2018-08-17T09:16:44.818Z,101772.02
2018-08-17T09:19:12.419Z,101784.39
2018-08-17T09:21:40.453Z,101786.16
2018-08-17T09:24:08.077Z,101793.17
2018-08-17T09:26:36.340Z,101801.11
2018-08-17T09:29:05.078Z,101802.03
2018-08-17T09:31:33.138Z,101811.28
2018-08-17T09:34:01.039Z,101809.97
2018-08-17T09:36:28.694Z,101809.97
2018-08-17T09:38:56.351Z,101816.58
2018-08-17T09:41:24.034Z,101808.16
2018-08-17T09:43:51.964Z,101815.21
2018-08-17T09:46:19.711Z,101812.53
2018-08-17T09:48:47.767Z,101808.97
2018-08-17T09:51:15.784Z,101797.50
2018-08-17T09:53:43.675Z,101795.70
2018-08-17T09:56:11.317Z,101790.36
2018-08-17T09:58:40.343Z,101791.57
2018-08-17T10:01:13.993Z,101781.83
2018-08-17T10:03:44.589Z,101761.83
2018-08-17T10:06:18.072Z,101772.37
2018-08-17T10:08:51.370Z,101774.05
2018-08-17T10:11:19.001Z,101787.72
2018-08-17T10:13:47.035Z,101781.03
2018-08-17T10:16:14.681Z,101785.31
2018-08-17T10:18:44.532Z,101791.04
2018-08-17T10:21:14.135Z,101798.14
2018-08-17T10:23:41.917Z,101791.48
2018-08-17T10:26:09.929Z,101790.88
2018-08-17T10:28:37.691Z,101795.64
2018-08-17T10:31:05.376Z,101805.75
2018-08-17T10:33:33.544Z,101803.46
2018-08-17T10:36:01.780Z,101795.03
2018-08-17T10:38:30.311Z,101794.07
2018-08-17T10:40:57.943Z,101794.03
2018-08-17T10:43:25.590Z,101803.37
2018-08-17T10:45:53.340Z,101805.79
2018-08-17T10:48:21.173Z,101802.83
2018-08-17T10:50:53.895Z,101799.86
2018-08-17T10:53:22.417Z,101795.09
2018-08-17T10:55:50.102Z,101748.64
2018-08-17T10:58:18.409Z,101776.17
2018-08-17T11:00:46.114Z,101766.34
2018-08-17T11:03:13.822Z,101765.70
2018-08-17T11:05:41.953Z,101776.72
2018-08-17T11:08:09.602Z,101770.67
2018-08-17T11:10:37.261Z,101772.55
2018-08-17T11:13:05.013Z,101768.43
2018-08-17T11:15:33.094Z,101767.60
2018-08-17T11:18:00.841Z,101779.27
2018-08-17T11:20:28.499Z,101777.33
2018-08-17T11:22:56.195Z,101776.84
2018-08-17T11:25:23.863Z,101777.23
2018-08-17T11:27:52.044Z,101777.73
2018-08-17T11:30:19.712Z,101770.66
2018-08-17T11:32:47.716Z,101777.19
2018-08-17T11:35:15.382Z,101773.22
2018-08-17T11:37:43.022Z,101778.52
2018-08-17T11:40:11.469Z,101773.22
2018-08-17T11:42:44.021Z,101777.95
2018-08-17T11:45:14.121Z,101780.03
2018-08-17T11:47:42.459Z,101779.09
2018-08-17T11:50:12.593Z,101785.27
2018-08-17T11:52:45.059Z,101788.72
2018-08-17T11:55:12.681Z,101790.83
2018-08-17T11:57:40.684Z,101788.63
2018-08-17T12:00:08.325Z,101791.62
2018-08-17T12:02:36.044Z,101796.53
2018-08-17T12:05:04.308Z,101798.60
2018-08-17T12:07:32.297Z,101795.91
2018-08-17T12:10:04.027Z,101798.06
2018-08-17T12:12:33.726Z,101797.05
2018-08-17T12:15:01.929Z,101801.73
2018-08-17T12:17:29.704Z,101802.48
2018-08-17T12:22:46.631Z,101800.55
2018-08-17T12:25:14.283Z,101802.17
2018-08-17T12:27:46.719Z,101804.38
2018-08-17T12:30:14.724Z,101798.59
2018-08-17T12:32:42.613Z,101804.42
2018-08-17T12:35:10.601Z,101801.91
2018-08-17T12:37:38.532Z,101804.88
2018-08-17T12:40:06.548Z,101807.83
2018-08-17T12:42:36.306Z,101806.32
2018-08-17T12:45:09.544Z,101804.61
2018-08-17T12:47:38.560Z,101812.63
2018-08-17T12:50:06.193Z,101814.41
2018-08-17T12:52:34.218Z,101810.03
2018-08-17T12:55:02.133Z,101816.30
2018-08-17T12:57:35.328Z,101817.27
2018-08-17T13:00:03.027Z,101815.58
2018-08-17T13:02:30.716Z,101820.05
2018-08-17T13:04:59.728Z,101813.78
2018-08-17T13:07:28.185Z,101815.46
2018-08-17T13:09:56.032Z,101816.70
2018-08-17T13:12:24.284Z,101816.25
2018-08-17T13:14:52.362Z,101823.77
2018-08-17T13:17:20.259Z,101821.55
2018-08-17T13:19:47.833Z,101821.94
2018-08-17T13:22:15.520Z,101817.05
2018-08-17T13:24:43.141Z,101815.38
2018-08-17T13:27:11.416Z,101816.73
2018-08-17T13:29:39.431Z,101822.44
2018-08-17T13:32:07.117Z,101825.52
2018-08-17T13:34:35.017Z,101825.09
2018-08-17T13:37:02.946Z,101828.56
2018-08-17T13:39:30.610Z,101825.39
2018-08-17T13:41:58.281Z,101831.92
2018-08-17T13:44:25.970Z,101826.53
2018-08-17T13:46:53.641Z,101829.94
2018-08-17T13:49:21.299Z,101820.45
2018-08-17T13:51:49.237Z,101826.90
2018-08-17T13:54:16.918Z,101833.70
2018-08-17T13:56:45.203Z,101833.21
2018-08-17T13:59:13.481Z,101833.56
2018-08-17T14:01:41.171Z,101833.30
2018-08-17T14:04:08.815Z,101837.58
2018-08-17T14:06:36.544Z,101834.93
2018-08-17T14:09:06.981Z,101836.26
2018-08-17T14:11:34.621Z,101830.03
2018-08-17T14:14:02.382Z,101837.98
2018-08-17T14:16:30.045Z,101831.27
2018-08-17T14:18:58.293Z,101836.15
2018-08-17T14:21:26.252Z,101828.95
2018-08-17T14:23:54.768Z,101834.59
2018-08-17T14:26:22.777Z,101836.19
2018-08-17T14:28:51.080Z,101837.23
2018-08-17T14:31:18.798Z,101841.05
2018-08-17T14:33:46.792Z,101840.84
2018-08-17T14:36:14.685Z,101843.86
2018-08-17T14:38:42.344Z,101846.56
2018-08-17T14:41:09.980Z,101850.61
2018-08-17T14:43:37.676Z,101851.50
2018-08-17T14:46:05.472Z,101850.03
2018-08-17T14:48:33.124Z,101846.84
2018-08-17T14:51:00.764Z,101850.31
2018-08-17T14:53:28.442Z,101853.80
2018-08-17T14:55:56.132Z,101856.45
2018-08-17T14:58:23.808Z,101855.31
2018-08-17T15:00:51.508Z,101869.30
2018-08-17T15:03:19.461Z,101870.87
2018-08-17T15:05:47.123Z,101870.41
2018-08-17T15:08:14.924Z,101862.97
2018-08-17T15:10:42.604Z,101869.61
2018-08-17T15:13:11.009Z,101863.80
2018-08-17T15:15:38.676Z,101857.67
2018-08-17T15:18:06.381Z,101860.80
2018-08-17T15:20:34.073Z,101869.45
2018-08-17T15:23:01.751Z,101871.19
2018-08-17T15:25:29.758Z,101866.34
2018-08-17T15:27:58.173Z,101870.34
2018-08-17T15:30:26.446Z,101869.86
2018-08-17T15:32:54.463Z,101876.80
2018-08-17T15:35:22.141Z,101871.93
2018-08-17T15:37:50.399Z,101871.27
2018-08-17T15:40:18.042Z,101874.20
2018-08-17T15:42:45.985Z,101877.20
2018-08-17T15:45:18.028Z,101871.79
2018-08-17T15:47:45.979Z,101882.20
2018-08-17T15:50:16.004Z,101869.41
2018-08-17T15:52:44.271Z,101872.82
2018-08-17T15:55:12.078Z,101864.02
2018-08-17T15:57:39.762Z,101870.58
2018-08-17T16:00:09.529Z,101869.08
2018-08-17T16:02:37.465Z,101868.39
2018-08-17T16:05:05.511Z,101873.47
2018-08-17T16:07:33.397Z,101870.47
2018-08-17T16:10:01.410Z,101867.95
2018-08-17T16:12:29.275Z,101869.34
2018-08-17T16:14:57.160Z,101868.56
2018-08-17T16:17:24.873Z,101869.89
2018-08-17T16:19:52.839Z,101869.50
2018-08-17T16:22:20.737Z,101864.19
2018-08-17T16:24:48.400Z,101866.45
2018-08-17T16:27:16.025Z,101864.33
2018-08-17T16:29:43.711Z,101859.97
2018-08-17T16:32:11.526Z,101864.03
2018-08-17T16:34:39.178Z,101863.21
2018-08-17T16:37:06.840Z,101863.27
2018-08-17T16:39:39.679Z,101859.81
2018-08-17T16:42:07.914Z,101867.78
2018-08-17T16:44:36.056Z,101866.11
2018-08-17T16:47:03.814Z,101818.81
2018-08-17T16:49:31.546Z,101869.80
2018-08-17T16:51:59.501Z,101861.44
2018-08-17T16:54:27.174Z,101872.52
2018-08-17T16:56:55.729Z,101869.87
2018-08-17T16:59:24.066Z,101878.27
2018-08-17T17:01:51.770Z,101750.98
2018-08-17T17:04:20.005Z,101878.25
2018-08-17T17:06:47.669Z,101881.34
2018-08-17T17:09:15.365Z,101884.06
2018-08-17T17:11:43.478Z,101883.66
2018-08-17T17:14:11.408Z,101882.72
2018-08-17T17:16:44.623Z,101892.65
2018-08-17T17:19:16.343Z,101882.38
2018-08-17T17:21:46.044Z,101883.88
2018-08-17T17:24:13.851Z,101886.75
2018-08-17T17:26:41.777Z,101881.58
2018-08-17T17:29:09.732Z,101880.28
2018-08-17T17:31:37.684Z,101885.28
2018-08-17T17:34:06.265Z,101892.40
2018-08-17T17:36:34.003Z,101890.02
2018-08-17T17:39:01.685Z,101887.17
2018-08-17T17:41:30.829Z,101891.16
2018-08-17T17:43:58.492Z,101894.75
2018-08-17T17:46:26.253Z,101897.02
2018-08-17T17:48:53.919Z,101900.83
2018-08-17T17:51:22.113Z,101903.13
2018-08-17T17:53:50.443Z,101901.81
2018-08-17T17:56:18.093Z,101900.50
2018-08-17T17:58:45.746Z,101896.34
2018-08-17T18:01:14.061Z,101904.89
2018-08-17T18:03:46.048Z,101901.64
2018-08-17T18:06:13.725Z,101899.97
2018-08-17T18:08:41.725Z,101906.80
2018-08-17T18:11:09.915Z,101913.19
2018-08-17T18:13:37.636Z,101915.02
2018-08-17T18:16:05.840Z,101913.98
2018-08-17T18:18:33.828Z,101912.91
2018-08-17T18:21:01.515Z,101914.03
2018-08-17T18:23:30.018Z,101909.89
2018-08-17T18:25:57.670Z,101909.69
2018-08-17T18:28:25.354Z,101915.14
2018-08-17T18:30:53.089Z,101913.11
2018-08-17T18:33:21.357Z,101914.66
2018-08-17T18:35:48.980Z,101917.86
2018-08-17T18:38:16.694Z,101919.36
2018-08-17T18:40:44.597Z,101919.58
2018-08-17T18:43:12.268Z,101925.42
2018-08-17T18:45:40.252Z,101926.44
2018-08-17T18:48:07.934Z,101934.97
2018-08-17T18:50:35.979Z,101928.00
2018-08-17T18:53:03.637Z,101936.47
2018-08-17T18:55:31.281Z,101933.95
2018-08-17T18:57:59.184Z,101934.97
2018-08-17T19:00:26.848Z,101935.54
2018-08-17T19:02:54.808Z,101939.61
2018-08-17T19:05:22.429Z,101932.67
2018-08-17T19:07:50.067Z,101935.00
2018-08-17T19:10:18.499Z,101937.77
2018-08-17T19:12:46.369Z,101943.16
2018-08-17T19:15:14.030Z,101940.60
2018-08-17T19:17:42.321Z,101947.31
2018-08-17T19:20:11.270Z,101947.03
2018-08-17T19:22:41.160Z,101950.16
2018-08-17T19:25:11.278Z,101949.84
2018-08-17T19:27:40.225Z,101955.66
2018-08-17T19:30:23.669Z,101952.22
2018-08-17T19:32:54.043Z,101954.55
2018-08-17T19:35:21.733Z,101959.91
2018-08-17T19:37:50.472Z,101960.84
2018-08-17T19:40:18.238Z,101962.24
2018-08-17T19:42:46.577Z,101963.13
2018-08-17T19:45:14.258Z,101961.41
2018-08-17T19:47:41.981Z,101961.52
2018-08-17T19:50:09.960Z,101968.19
2018-08-17T19:52:37.613Z,101966.94
2018-08-17T19:55:05.750Z,101963.89
2018-08-17T19:57:33.419Z,101967.91
2018-08-17T20:00:01.598Z,101966.62
2018-08-17T20:02:29.593Z,101968.02
2018-08-17T20:04:57.237Z,101979.53
2018-08-17T20:07:24.944Z,101973.83
2018-08-17T20:09:52.616Z,101974.34
2018-08-17T20:12:20.511Z,101972.59
2018-08-17T20:14:48.168Z,101980.56
2018-08-17T20:17:15.819Z,101979.36
2018-08-17T20:19:49.579Z,101982.92
2018-08-17T20:22:20.720Z,101979.47
2018-08-17T20:24:48.455Z,101979.95
2018-08-17T20:27:17.793Z,101988.33
2018-08-17T20:29:45.481Z,101991.02
2018-08-17T20:32:13.193Z,101992.81
2018-08-17T20:34:44.494Z,101993.70
2018-08-17T20:37:13.648Z,101991.97
2018-08-17T20:39:43.242Z,101991.56
2018-08-17T20:42:11.274Z,101995.53
2018-08-17T20:44:39.383Z,101999.09
2018-08-17T20:47:07.752Z,101996.05
2018-08-17T20:49:35.691Z,102004.47
2018-08-17T20:52:03.720Z,101997.01
2018-08-17T20:54:31.834Z,102004.50
2018-08-17T20:57:00.387Z,102009.84
2018-08-17T20:59:28.277Z,102007.66
2018-08-17T21:01:56.407Z,102011.67
2018-08-17T21:04:24.061Z,102010.34
2018-08-17T21:06:52.325Z,102016.12
2018-08-17T21:09:20.398Z,102010.42
2018-08-17T21:11:48.050Z,102014.39
2018-08-17T21:14:15.760Z,102021.52
2018-08-17T21:16:43.401Z,102014.05
2018-08-17T21:19:11.414Z,102020.23
2018-08-17T21:21:39.370Z,102024.64
2018-08-17T21:24:06.953Z,102024.23
2018-08-17T21:26:34.645Z,102028.68
2018-08-17T21:29:03.254Z,102030.00
2018-08-17T21:31:31.438Z,102031.80
2018-08-17T21:33:59.087Z,102033.16
2018-08-17T21:36:26.773Z,102031.84
2018-08-17T21:39:12.009Z,102034.52
2018-08-17T21:41:41.842Z,102027.50
2018-08-17T21:44:11.865Z,102032.82
2018-08-17T21:46:42.543Z,102031.53
2018-08-17T21:49:10.427Z,102035.09
2018-08-17T21:51:38.397Z,102031.16
2018-08-17T21:54:06.495Z,102034.25
2018-08-17T21:56:34.152Z,102035.64
2018-08-17T21:59:01.800Z,102038.73
2018-08-17T22:01:29.479Z,102039.64
2018-08-17T22:03:57.441Z,102040.56
2018-08-17T22:06:25.116Z,102048.05
2018-08-17T22:08:53.676Z,102041.03
2018-08-17T22:11:36.481Z,102047.69
2018-08-17T22:14:05.099Z,102045.52
2018-08-17T22:16:33.063Z,102041.98
2018-08-17T22:19:00.799Z,102043.81
2018-08-17T22:21:29.177Z,102047.31
2018-08-17T22:23:56.930Z,102040.80
2018-08-17T22:26:24.901Z,102043.44
2018-08-17T22:28:52.746Z,102039.95
2018-08-17T22:31:32.177Z,102042.16
2018-08-17T22:33:59.851Z,102044.33
2018-08-17T22:36:28.716Z,102040.45
2018-08-17T22:38:56.336Z,102045.75
2018-08-17T22:41:23.957Z,102046.19
2018-08-17T22:43:52.239Z,102045.78
2018-08-17T22:46:19.869Z,102045.41
2018-08-17T22:48:47.549Z,102041.44
2018-08-17T22:51:15.175Z,102046.35
2018-08-17T22:53:43.241Z,102041.50
2018-08-17T22:56:11.135Z,102044.15
2018-08-17T22:58:44.425Z,102045.91
2018-08-17T23:01:12.075Z,102050.35
2018-08-17T23:03:44.465Z,102045.98
2018-08-17T23:06:12.485Z,102042.92
2018-08-17T23:08:40.714Z,102050.01
2018-08-17T23:11:18.701Z,102050.01
2018-08-17T23:13:46.336Z,102057.97
2018-08-17T23:16:14.039Z,102052.72
2018-08-17T23:18:41.676Z,102048.31
2018-08-17T23:21:09.729Z,102051.88
2018-08-17T23:23:37.443Z,102051.91
2018-08-17T23:26:05.118Z,102053.66
2018-08-17T23:28:33.117Z,102050.58
2018-08-17T23:31:00.802Z,102054.55
2018-08-17T23:33:28.962Z,102043.06
2018-08-17T23:35:56.584Z,102050.98
2018-08-17T23:38:24.278Z,102050.11
2018-08-17T23:40:52.283Z,102050.61
2018-08-17T23:43:19.957Z,102055.91
2018-08-17T23:45:47.980Z,102048.00
2018-08-17T23:48:15.698Z,102049.77
2018-08-17T23:50:43.714Z,102050.23
2018-08-17T23:53:11.407Z,102050.27
2018-08-17T23:55:39.325Z,102054.67
2018-08-17T23:58:06.945Z,102052.03
